Time;durP1;ratioP1;P1;durP2;ratioP2;P2;SDS_P1;SDS_P2;PMS_P1;PMS_P2;Temp;Humidity;BMP_temperature;BMP_pressure;BME280_temperature;BME280_humidity;BME280_pressure;Samples;Min_cycle;Max_cycle;Signal;HPM_P1;HPM_P2
2022/04/29 00:04:46;;;;;;;17.80;12.37;;;;;9.00;102403.00;;;;10571037;28;20192;-81
2022/04/29 00:09:48;;;;;;;24.70;12.57;;;;;8.90;102402.00;;;;10554256;28;20567;-80
2022/04/29 00:14:49;;;;;;;17.73;12.73;;;;;8.80;102403.00;;;;10536310;28;20225;-81
2022/04/29 00:19:51;;;;;;;17.90;13.40;;;;;8.70;102393.00;;;;10553342;28;20188;-81
2022/04/29 00:24:53;;;;;;;19.83;13.53;;;;;8.60;102394.00;;;;10570577;28;20203;-80
2022/04/29 00:29:55;;;;;;;21.30;14.10;;;;;8.70;102393.00;;;;10552711;28;20209;-81
2022/04/29 00:34:57;;;;;;;19.50;13.90;;;;;8.70;102381.00;;;;10552974;28;20196;-80
2022/04/29 00:39:59;;;;;;;19.27;14.47;;;;;8.70;102378.00;;;;10601555;27;20215;-80
2022/04/29 00:45:01;;;;;;;27.47;15.20;;;;;8.70;102376.00;;;;10566638;27;20197;-80
2022/04/29 00:50:04;;;;;;;21.37;14.47;;;;;8.70;102368.00;;;;10569354;28;20219;-80
2022/04/29 00:55:09;;;;;;;19.07;13.73;;;;;8.70;102377.00;;;;10586159;27;20218;-80
2022/04/29 01:00:14;;;;;;;20.20;14.70;;;;;8.60;102356.00;;;;10536866;27;20189;-80
2022/04/29 01:05:19;;;;;;;24.67;15.30;;;;;8.60;102364.00;;;;10494286;28;20663;-80
2022/04/29 01:10:23;;;;;;;26.63;15.40;;;;;8.60;102349.00;;;;10510733;28;20213;-80
2022/04/29 01:15:27;;;;;;;27.63;15.20;;;;;8.60;102343.00;;;;10561370;28;20552;-80
2022/04/29 01:20:31;;;;;;;24.73;15.63;;;;;8.60;102355.00;;;;10510088;28;20674;-80
2022/04/29 01:25:33;;;;;;;26.67;15.27;;;;;8.60;102346.00;;;;10544572;28;20210;-80
2022/04/29 01:30:36;;;;;;;21.23;14.90;;;;;8.60;102338.00;;;;10534564;28;20321;-81
2022/04/29 01:35:39;;;;;;;22.03;15.00;;;;;8.60;102335.00;;;;10551079;28;20607;-80
2022/04/29 01:40:42;;;;;;;24.93;15.03;;;;;8.60;102341.00;;;;10550824;28;20208;-81
2022/04/29 01:45:49;;;;;;;20.17;15.67;;;;;8.60;102339.00;;;;10585092;28;20226;-80
2022/04/29 01:51:06;;;;;;;24.47;15.63;;;;;8.50;102347.00;;;;10510293;28;20216;-80
2022/04/29 01:56:08;;;;;;;22.93;16.03;;;;;8.50;102339.00;;;;10569748;27;20287;-80
2022/04/29 02:01:10;;;;;;;23.07;16.53;;;;;8.50;102340.00;;;;10540848;28;20184;-80
2022/04/29 02:06:12;;;;;;;20.67;15.57;;;;;8.50;102334.00;;;;10566931;28;20246;-80
2022/04/29 02:11:17;;;;;;;27.80;16.83;;;;;8.50;102322.00;;;;10565722;28;20216;-80
2022/04/29 02:16:24;;;;;;;28.07;16.03;;;;;8.50;102332.00;;;;10549434;28;20218;-80
2022/04/29 02:21:27;;;;;;;26.10;16.03;;;;;8.50;102327.00;;;;10549087;28;20199;-79
2022/04/29 02:26:29;;;;;;;24.00;16.13;;;;;8.50;102340.00;;;;10566621;28;20196;-80
2022/04/29 02:31:31;;;;;;;21.67;15.53;;;;;8.40;102331.00;;;;10546299;28;20263;-80
2022/04/29 02:36:33;;;;;;;23.17;16.07;;;;;8.50;102329.00;;;;10543254;27;20192;-79
2022/04/29 02:41:36;;;;;;;24.90;16.70;;;;;8.50;102331.00;;;;10591621;27;20211;-80
2022/04/29 02:47:06;;;;;;;27.47;15.93;;;;;8.50;102328.00;;;;10565039;28;20643;-80
2022/04/29 02:52:01;;;;;;;28.13;16.27;;;;;8.50;102333.00;;;;10546562;27;20274;-79
2022/04/29 02:57:04;;;;;;;26.00;16.87;;;;;8.50;102330.00;;;;10574310;27;20608;-79
2022/04/29 03:02:10;;;;;;;21.40;16.23;;;;;8.60;102323.00;;;;10566603;28;20207;-80
2022/04/29 03:07:12;;;;;;;30.20;16.70;;;;;8.70;102325.00;;;;10564672;28;20196;-79
2022/04/29 03:12:34;;;;;;;27.20;15.60;;;;;8.80;102331.00;;;;10564479;28;20188;-79
2022/04/29 03:23:10;;;;;;;22.87;16.20;;;;;8.80;102323.00;;;;10592184;27;20214;-80
2022/04/29 03:28:16;;;;;;;24.43;15.77;;;;;8.90;102321.00;;;;10581953;27;20215;-80
2022/04/29 03:33:18;;;;;;;27.93;16.00;;;;;8.90;102319.00;;;;10598048;27;20749;-79
2022/04/29 03:38:21;;;;;;;20.90;15.40;;;;;8.90;102320.00;;;;10564584;27;20194;-79
2022/04/29 03:43:22;;;;;;;23.77;15.37;;;;;8.80;102310.00;;;;10580864;27;20254;-80
2022/04/29 03:48:26;;;;;;;26.63;16.33;;;;;8.80;102316.00;;;;10497254;28;20212;-80
2022/04/29 03:53:40;;;;;;;23.87;15.87;;;;;8.80;102320.00;;;;10528358;28;20188;-79
2022/04/29 03:58:41;;;;;;;20.90;15.60;;;;;8.70;102310.00;;;;10502377;28;20381;-80
2022/04/29 04:03:43;;;;;;;24.77;15.40;;;;;8.60;102302.00;;;;10525647;28;20589;-79
2022/04/29 04:08:50;;;;;;;26.43;16.00;;;;;8.60;102302.00;;;;10522095;28;20258;-80
2022/04/29 04:13:52;;;;;;;29.23;15.77;;;;;8.60;102297.00;;;;10536955;28;20207;-80
2022/04/29 04:19:16;;;;;;;24.37;15.43;;;;;8.50;102298.00;;;;10524514;28;20188;-80
2022/04/29 04:24:19;;;;;;;25.87;15.07;;;;;8.40;102297.00;;;;10521574;28;20188;-81
2022/04/29 04:29:22;;;;;;;24.10;15.90;;;;;8.40;102283.00;;;;10538267;27;20678;-80
2022/04/29 04:39:44;;;;;;;23.97;15.03;;;;;8.30;102302.00;;;;10540079;28;20176;-81
2022/04/29 04:44:51;;;;;;;23.70;14.27;;;;;8.30;102304.00;;;;10520495;28;20192;-81
2022/04/29 04:49:55;;;;;;;22.70;15.30;;;;;8.30;102306.00;;;;10552940;28;20247;-80
2022/04/29 04:55:16;;;;;;;25.10;15.63;;;;;8.30;102316.00;;;;10555900;28;20718;-80
2022/04/29 05:00:20;;;;;;;22.77;15.10;;;;;8.30;102316.00;;;;10536786;28;20184;-80
2022/04/29 05:05:54;;;;;;;28.83;16.47;;;;;8.40;102305.00;;;;10523172;28;20262;-81
2022/04/29 05:10:58;;;;;;;21.33;14.73;;;;;8.50;102303.00;;;;10552742;28;20208;-80
2022/04/29 05:16:00;;;;;;;20.40;15.07;;;;;8.60;102294.00;;;;10536317;28;20269;-81
2022/04/29 05:21:15;;;;;;;28.33;15.33;;;;;8.80;102307.00;;;;10568461;28;20192;-80
2022/04/29 05:26:17;;;;;;;22.27;14.40;;;;;8.90;102315.00;;;;10534326;28;20192;-80
2022/04/29 05:31:37;;;;;;;22.80;13.77;;;;;9.00;102332.00;;;;10537255;28;20250;-80
2022/04/29 05:37:01;;;;;;;24.53;15.37;;;;;9.00;102338.00;;;;10518230;28;20187;-81
2022/04/29 05:42:17;;;;;;;22.73;14.73;;;;;9.00;102337.00;;;;10518990;28;20212;-81
2022/04/29 05:47:19;;;;;;;22.63;15.17;;;;;9.20;102335.00;;;;10518903;28;20200;-82
2022/04/29 05:52:26;;;;;;;30.13;15.87;;;;;9.40;102327.00;;;;10522292;28;20221;-81
2022/04/29 05:57:28;;;;;;;24.97;15.37;;;;;9.50;102329.00;;;;10521863;28;20200;-81
2022/04/29 06:02:31;;;;;;;27.60;14.87;;;;;9.60;102333.00;;;;10511707;28;20195;-81
2022/04/29 06:07:44;;;;;;;23.27;15.13;;;;;9.70;102333.00;;;;10538071;28;20189;-81
2022/04/29 06:12:53;;;;;;;21.47;14.10;;;;;9.90;102340.00;;;;10552363;28;20731;-81
2022/04/29 06:18:07;;;;;;;20.23;14.47;;;;;10.40;102336.00;;;;10550934;28;20192;-81
2022/04/29 06:23:28;;;;;;;23.67;14.53;;;;;10.80;102339.00;;;;10540617;28;20195;-80
2022/04/29 06:28:32;;;;;;;19.10;13.33;;;;;11.20;102346.00;;;;10536722;28;20215;-81
2022/04/29 06:33:35;;;;;;;22.17;13.93;;;;;11.60;102355.00;;;;10559905;28;20220;-82
2022/04/29 06:38:39;;;;;;;29.33;13.73;;;;;11.60;102360.00;;;;10529416;28;20212;-82
2022/04/29 06:43:59;;;;;;;16.77;12.63;;;;;11.70;102360.00;;;;10515751;28;20701;-81
2022/04/29 06:49:20;;;;;;;20.90;12.63;;;;;11.80;102365.00;;;;10538438;28;20261;-81
2022/04/29 06:54:40;;;;;;;17.83;12.87;;;;;12.00;102366.00;;;;10535416;28;20201;-81
2022/04/29 06:59:47;;;;;;;24.03;13.20;;;;;12.00;102363.00;;;;10517871;28;20619;-82
2022/04/29 07:04:49;;;;;;;18.20;12.97;;;;;12.10;102373.00;;;;10502769;28;20267;-80
2022/04/29 07:09:50;;;;;;;19.93;12.47;;;;;12.50;102370.00;;;;10537434;28;20207;-80
2022/04/29 07:15:15;;;;;;;20.43;13.43;;;;;12.80;102366.00;;;;10556114;28;20200;-80
2022/04/29 07:20:18;;;;;;;21.63;13.53;;;;;12.80;102359.00;;;;10534688;28;20249;-80
2022/04/29 07:25:21;;;;;;;19.47;12.70;;;;;12.80;102345.00;;;;10535193;28;20192;-80
2022/04/29 07:30:24;;;;;;;18.53;12.93;;;;;13.00;102356.00;;;;10562165;28;20196;-80
2022/04/29 07:46:28;;;;;;;19.17;13.13;;;;;13.80;102372.00;;;;10494460;28;20199;-80
2022/04/29 07:51:57;;;;;;;21.23;13.30;;;;;14.20;102367.00;;;;10499401;28;20275;-81
2022/04/29 07:56:59;;;;;;;24.27;13.17;;;;;14.50;102366.00;;;;10477115;28;20193;-80
2022/04/29 08:02:01;;;;;;;17.80;12.83;;;;;14.30;102371.00;;;;10508983;28;20247;-81
2022/04/29 08:07:03;;;;;;;27.77;14.00;;;;;14.00;102368.00;;;;10475612;28;20192;-80
2022/04/29 08:12:10;;;;;;;19.67;12.73;;;;;13.90;102374.00;;;;10497211;28;20299;-80
2022/04/29 08:17:12;;;;;;;21.70;12.90;;;;;13.40;102362.00;;;;10512017;28;20248;-81
2022/04/29 08:22:24;;;;;;;17.87;13.57;;;;;13.20;102370.00;;;;10542229;28;20550;-80
2022/04/29 08:27:28;;;;;;;24.20;13.83;;;;;13.10;102381.00;;;;10540642;28;20307;-81
2022/04/29 08:32:43;;;;;;;23.00;13.30;;;;;12.80;102381.00;;;;10532016;28;20213;-81
2022/04/29 08:38:04;;;;;;;20.73;12.60;;;;;12.80;102391.00;;;;10515362;28;20199;-81
2022/04/29 08:43:35;;;;;;;18.77;12.37;;;;;12.70;102395.00;;;;10517774;28;20602;-80
2022/04/29 08:48:43;;;;;;;23.50;14.20;;;;;12.60;102382.00;;;;10515193;28;20254;-81
2022/04/29 08:53:47;;;;;;;20.10;12.87;;;;;12.60;102382.00;;;;10514298;28;20192;-81
2022/04/29 08:58:49;;;;;;;20.50;13.03;;;;;12.30;102373.00;;;;10539928;28;20196;-79
2022/04/29 09:03:52;;;;;;;21.83;13.87;;;;;12.30;102370.00;;;;10498025;28;20678;-81
2022/04/29 09:09:07;;;;;;;21.10;13.73;;;;;12.30;102369.00;;;;10497626;28;20236;-81
2022/04/29 09:14:23;;;;;;;20.73;13.47;;;;;12.40;102368.00;;;;10498166;28;20193;-81
2022/04/29 09:19:33;;;;;;;24.13;14.90;;;;;12.60;102353.00;;;;10514786;28;20173;-81
2022/04/29 09:24:36;;;;;;;23.23;14.83;;;;;12.80;102346.00;;;;10498006;28;20224;-81
2022/04/29 09:30:10;;;;;;;22.90;14.53;;;;;13.30;102362.00;;;;10492076;28;20200;-80
2022/04/29 09:35:42;;;;;;;20.43;15.47;;;;;13.70;102344.00;;;;10517720;28;20533;-81
2022/04/29 09:40:44;;;;;;;21.57;14.60;;;;;14.30;102355.00;;;;10567165;28;20584;-81
2022/04/29 09:45:45;;;;;;;23.13;14.33;;;;;14.60;102352.00;;;;10548843;28;20246;-81
2022/04/29 09:50:50;;;;;;;21.00;14.60;;;;;14.80;102355.00;;;;10511800;28;20243;-81
2022/04/29 09:56:08;;;;;;;20.30;14.07;;;;;14.90;102344.00;;;;10529217;28;20213;-80
2022/04/29 10:01:12;;;;;;;23.90;14.70;;;;;14.70;102325.00;;;;10495972;28;20211;-80
2022/04/29 10:06:18;;;;;;;21.17;14.10;;;;;14.80;102341.00;;;;10512219;28;20293;-81
2022/04/29 10:11:23;;;;;;;19.10;13.93;;;;;15.00;102344.00;;;;10494759;28;20240;-80
2022/04/29 10:16:31;;;;;;;24.10;15.07;;;;;14.80;102338.00;;;;10495354;28;20275;-81
2022/04/29 10:21:38;;;;;;;21.07;14.90;;;;;15.20;102355.00;;;;10511466;28;20273;-81
2022/04/29 10:26:40;;;;;;;24.07;14.97;;;;;15.60;102357.00;;;;10495078;28;20602;-81
2022/04/29 10:31:43;;;;;;;24.43;14.73;;;;;15.80;102349.00;;;;10548600;27;20543;-81
2022/04/29 10:36:46;;;;;;;21.07;13.97;;;;;16.20;102340.00;;;;10558186;27;20192;-81
2022/04/29 10:42:11;;;;;;;17.83;13.87;;;;;15.70;102349.00;;;;10519498;28;20223;-81
2022/04/29 10:47:38;;;;;;;20.47;15.27;;;;;16.00;102344.00;;;;10500986;28;20184;-82
2022/04/29 10:53:04;;;;;;;22.87;15.00;;;;;16.00;102350.00;;;;10521667;28;20212;-82
2022/04/29 10:58:19;;;;;;;25.83;15.03;;;;;16.20;102340.00;;;;10535960;28;20764;-81
2022/04/29 11:03:38;;;;;;;24.70;15.97;;;;;16.90;102343.00;;;;10511090;28;20222;-81
2022/04/29 11:08:42;;;;;;;22.77;16.73;;;;;18.00;102337.00;;;;10494562;28;20612;-81
2022/04/29 11:13:47;;;;;;;21.85;15.55;;;;;18.80;102335.00;;;;10527721;28;20628;-81
2022/04/29 11:19:26;;;;;;;24.63;15.75;;;;;19.10;102332.00;;;;10503599;28;20220;-81
2022/04/29 11:24:42;;;;;;;25.30;15.38;;;;;19.70;102345.00;;;;10494640;28;20188;-81
2022/04/29 11:30:02;;;;;;;22.92;15.32;;;;;20.00;102340.00;;;;10516422;28;20208;-82
2022/04/29 11:35:09;;;;;;;22.73;14.90;;;;;20.10;102335.00;;;;10536687;28;20203;-82
2022/04/29 11:40:12;;;;;;;20.88;15.32;;;;;20.10;102339.00;;;;10520793;28;20215;-82
2022/04/29 11:45:14;;;;;;;19.50;15.77;;;;;19.70;102339.00;;;;10523465;28;20207;-82
2022/04/29 11:50:35;;;;;;;19.95;15.52;;;;;19.20;102337.00;;;;10545252;27;20223;-82
2022/04/29 11:55:40;;;;;;;25.02;15.68;;;;;19.50;102330.00;;;;10528570;28;20230;-82
2022/04/29 12:00:50;;;;;;;22.23;15.95;;;;;20.60;102321.00;;;;10545213;28;20189;-82
2022/04/29 12:05:54;;;;;;;24.92;15.68;;;;;20.90;102315.00;;;;10576882;28;20188;-82
2022/04/29 12:10:57;;;;;;;23.50;16.15;;;;;21.50;102315.00;;;;10503312;28;20215;-82
2022/04/29 12:16:04;;;;;;;20.10;15.63;;;;;21.90;102301.00;;;;10503333;28;20288;-82
2022/04/29 12:21:11;;;;;;;23.45;15.90;;;;;22.50;102306.00;;;;10517744;28;20189;-82
2022/04/29 12:26:18;;;;;;;18.30;15.82;;;;;22.50;102300.00;;;;10540686;28;20207;-83
2022/04/29 12:36:57;;;;;;;22.40;16.67;;;;;23.00;102310.00;;;;10561267;28;20271;-83
2022/04/29 12:42:18;;;;;;;21.92;15.80;;;;;23.80;102290.00;;;;10547872;28;20227;-82
2022/04/29 12:47:24;;;;;;;23.35;17.00;;;;;24.00;102295.00;;;;10525594;28;20220;-82
2022/04/29 12:52:29;;;;;;;17.95;16.02;;;;;22.80;102295.00;;;;10516637;28;20282;-82
2022/04/29 12:57:43;;;;;;;31.67;18.20;;;;;22.40;102281.00;;;;10534382;28;20224;-82
2022/04/29 13:02:56;;;;;;;19.38;15.73;;;;;22.30;102289.00;;;;10540460;28;20196;-82
2022/04/29 13:08:22;;;;;;;21.27;16.05;;;;;22.30;102285.00;;;;10550673;28;20195;-83
2022/04/29 13:13:28;;;;;;;23.27;16.27;;;;;22.90;102281.00;;;;10545937;28;20258;-81
2022/04/29 13:18:31;;;;;;;21.65;16.25;;;;;23.10;102273.00;;;;10545596;28;20192;-81
2022/04/29 13:23:39;;;;;;;25.35;17.10;;;;;23.70;102275.00;;;;10529503;28;20184;-83
2022/04/29 13:28:46;;;;;;;20.05;17.33;;;;;23.00;102257.00;;;;10529291;28;20196;-80
2022/04/29 13:33:49;;;;;;;25.80;17.20;;;;;23.40;102253.00;;;;10535190;28;20307;-81
2022/04/29 13:39:04;;;;;;;23.73;16.58;;;;;23.50;102244.00;;;;10549724;27;20558;-81
2022/04/29 13:44:16;;;;;;;20.60;16.48;;;;;24.10;102239.00;;;;10579281;27;20634;-83
2022/04/29 13:49:22;;;;;;;20.35;16.30;;;;;24.10;102238.00;;;;10542795;27;20212;-83
2022/04/29 13:54:27;;;;;;;23.90;15.95;;;;;24.30;102226.00;;;;10520062;28;20199;-84
2022/04/29 13:59:32;;;;;;;28.50;18.20;;;;;26.20;102210.00;;;;10530193;27;20195;-84
2022/04/29 14:04:34;;;;;;;22.90;16.63;;;;;29.00;102202.00;;;;10568311;27;20295;-83
2022/04/29 14:09:36;;;;;;;22.60;17.02;;;;;27.60;102207.00;;;;10498667;28;20216;-83
2022/04/29 14:14:39;;;;;;;21.33;16.58;;;;;27.30;102219.00;;;;10476377;28;20197;-83
2022/04/29 14:19:41;;;;;;;21.65;15.70;;;;;28.20;102204.00;;;;10510888;28;20227;-82
2022/04/29 14:24:43;;;;;;;19.75;15.90;;;;;28.30;102193.00;;;;10527265;28;20200;-84
2022/04/29 14:29:48;;;;;;;26.63;18.98;;;;;28.20;102195.00;;;;10518036;27;20230;-83
2022/04/29 14:34:55;;;;;;;21.65;16.48;;;;;29.80;102172.00;;;;10576995;27;20192;-81
2022/04/29 14:39:59;;;;;;;19.75;16.27;;;;;30.20;102177.00;;;;10548089;28;20205;-83
2022/04/29 14:45:02;;;;;;;21.60;16.98;;;;;30.40;102184.00;;;;10517421;28;20184;-84
2022/04/29 14:50:06;;;;;;;22.67;17.35;;;;;30.80;102187.00;;;;10537037;27;20219;-83
2022/04/29 14:55:11;;;;;;;18.92;16.88;;;;;30.20;102183.00;;;;10499467;28;20201;-83
2022/04/29 15:00:15;;;;;;;22.50;16.90;;;;;31.10;102190.00;;;;10495820;28;20562;-83
2022/04/29 15:05:17;;;;;;;25.25;17.33;;;;;28.10;102191.00;;;;10516096;28;20199;-83
2022/04/29 15:15:45;;;;;;;22.70;17.33;;;;;24.60;102193.00;;;;10551010;28;20208;-83
2022/04/29 15:20:48;;;;;;;23.88;17.23;;;;;21.80;102188.00;;;;10521127;28;20252;-83
2022/04/29 15:25:50;;;;;;;20.45;16.88;;;;;21.80;102174.00;;;;10542843;28;20192;-84
2022/04/29 15:30:52;;;;;;;28.33;17.08;;;;;23.00;102177.00;;;;10544869;27;20674;-85
2022/04/29 15:35:58;;;;;;;22.55;16.75;;;;;21.90;102182.00;;;;10538537;27;20714;-83
2022/04/29 15:41:01;;;;;;;28.45;17.85;;;;;20.20;102186.00;;;;10521239;28;20249;-83
2022/04/29 15:46:03;;;;;;;31.98;17.75;;;;;20.20;102173.00;;;;10554712;27;20236;-84
2022/04/29 15:51:06;;;;;;;29.20;17.77;;;;;20.90;102176.00;;;;10553155;27;20216;-83
2022/04/29 15:56:08;;;;;;;21.58;17.23;;;;;20.40;102171.00;;;;10563782;27;20195;-83
2022/04/29 16:01:10;;;;;;;23.95;18.13;;;;;19.60;102166.00;;;;10542441;28;20189;-83
2022/04/29 16:06:13;;;;;;;20.83;17.65;;;;;19.90;102160.00;;;;10560625;28;20275;-84
2022/04/29 16:11:15;;;;;;;26.88;17.50;;;;;19.70;102161.00;;;;10560809;28;20234;-83
2022/04/29 16:16:17;;;;;;;23.55;18.05;;;;;19.00;102165.00;;;;10516153;28;20200;-83
2022/04/29 16:21:25;;;;;;;22.10;16.73;;;;;18.60;102153.00;;;;10558268;28;20188;-84
2022/04/29 16:26:27;;;;;;;24.15;18.52;;;;;18.70;102150.00;;;;10516250;28;20205;-83
2022/04/29 16:31:30;;;;;;;24.80;17.90;;;;;18.80;102146.00;;;;10560730;27;20229;-83
2022/04/29 16:36:33;;;;;;;25.85;18.08;;;;;19.00;102142.00;;;;10581924;27;20183;-83
2022/04/29 16:41:35;;;;;;;25.73;17.15;;;;;18.70;102143.00;;;;10523462;28;20238;-83
2022/04/29 16:46:37;;;;;;;27.92;18.20;;;;;18.60;102131.00;;;;10554811;28;20196;-82
2022/04/29 16:51:39;;;;;;;24.25;16.67;;;;;18.50;102138.00;;;;10526725;28;20211;-83
2022/04/29 17:02:04;;;;;;;19.63;15.07;;;;;17.70;102143.00;;;;10546082;28;20630;-83
2022/04/29 17:07:06;;;;;;;20.30;16.08;;;;;17.30;102140.00;;;;10517034;28;20196;-83
2022/04/29 17:12:09;;;;;;;25.10;16.60;;;;;17.10;102140.00;;;;10538927;28;20204;-83
2022/04/29 17:17:13;;;;;;;19.75;15.60;;;;;17.00;102139.00;;;;10542792;28;20204;-82
2022/04/29 17:22:15;;;;;;;23.63;14.77;;;;;16.80;102137.00;;;;10536937;28;20189;-83
2022/04/29 17:27:22;;;;;;;20.05;14.48;;;;;16.50;102126.00;;;;10515092;28;20200;-82
2022/04/29 17:32:24;;;;;;;19.37;15.43;;;;;16.50;102139.00;;;;10503844;28;20207;-83
2022/04/29 17:37:27;;;;;;;20.93;14.57;;;;;16.50;102131.00;;;;10529335;28;20212;-82
2022/04/29 17:42:33;;;;;;;19.70;12.77;;;;;16.40;102120.00;;;;10537951;28;20212;-82
2022/04/29 17:47:38;;;;;;;18.17;11.73;;;;;16.20;102122.00;;;;10577246;27;20191;-83
2022/04/29 17:52:41;;;;;;;19.00;11.23;;;;;16.00;102122.00;;;;10565198;27;20227;-83
2022/04/29 17:57:43;;;;;;;20.83;11.50;;;;;15.80;102138.00;;;;10568068;27;20196;-83
2022/04/29 18:02:47;;;;;;;15.50;11.57;;;;;15.50;102132.00;;;;10582058;27;20217;-83
2022/04/29 18:07:50;;;;;;;20.60;12.27;;;;;15.30;102136.00;;;;10545752;27;20197;-83
2022/04/29 18:12:53;;;;;;;21.70;11.60;;;;;15.10;102144.00;;;;10477244;28;20217;-82
2022/04/29 18:17:56;;;;;;;19.20;12.03;;;;;15.00;102138.00;;;;10512918;28;20655;-83
2022/04/29 18:22:58;;;;;;;16.97;11.67;;;;;14.90;102147.00;;;;10560465;27;20649;-83
2022/04/29 18:28:01;;;;;;;17.50;11.37;;;;;14.80;102142.00;;;;10579781;27;20621;-82
2022/04/29 18:33:04;;;;;;;17.07;11.53;;;;;14.60;102154.00;;;;10518306;28;20227;-82
2022/04/29 18:38:05;;;;;;;16.50;11.17;;;;;14.30;102154.00;;;;10499977;28;20602;-83
2022/04/29 18:43:08;;;;;;;20.50;10.77;;;;;14.10;102162.00;;;;10501866;28;20243;-82
2022/04/29 18:48:10;;;;;;;16.07;11.37;;;;;13.90;102164.00;;;;10522332;27;20595;-81
2022/04/29 18:53:12;;;;;;;19.53;10.77;;;;;13.70;102171.00;;;;10525052;28;20254;-81
2022/04/29 18:58:15;;;;;;;18.67;11.73;;;;;13.60;102180.00;;;;10523311;28;20646;-81
2022/04/29 19:03:17;;;;;;;19.07;11.47;;;;;13.40;102185.00;;;;10519618;28;20696;-82
2022/04/29 19:08:22;;;;;;;16.07;10.87;;;;;13.20;102186.00;;;;10489846;28;20204;-81
2022/04/29 19:13:24;;;;;;;21.37;11.33;;;;;13.00;102191.00;;;;10529013;28;20209;-82
2022/04/29 19:18:26;;;;;;;17.43;10.27;;;;;12.90;102201.00;;;;10518218;28;20695;-81
2022/04/29 19:23:28;;;;;;;16.70;10.93;;;;;12.80;102197.00;;;;10512755;28;20192;-81
2022/04/29 19:28:30;;;;;;;17.03;11.40;;;;;12.60;102210.00;;;;10545191;28;20198;-82
2022/04/29 19:33:32;;;;;;;19.37;11.17;;;;;12.50;102213.00;;;;10519769;28;20880;-83
2022/04/29 19:38:34;;;;;;;15.70;11.00;;;;;12.40;102222.00;;;;10500910;28;20189;-81
2022/04/29 19:43:35;;;;;;;19.07;12.73;;;;;12.20;102228.00;;;;10520124;28;20353;-81
2022/04/29 19:48:39;;;;;;;16.20;11.60;;;;;12.10;102224.00;;;;10544511;28;20218;-81
2022/04/29 19:53:40;;;;;;;19.13;12.67;;;;;11.90;102231.00;;;;10518563;28;20208;-81
2022/04/29 20:04:07;;;;;;;16.87;12.60;;;;;11.70;102239.00;;;;10538836;28;20192;-80
2022/04/29 20:09:10;;;;;;;17.90;13.30;;;;;11.50;102247.00;;;;10498343;28;20209;-80
2022/04/29 20:14:12;;;;;;;25.03;13.33;;;;;11.40;102248.00;;;;10527518;27;20678;-81
2022/04/29 20:19:16;;;;;;;17.40;12.37;;;;;11.20;102252.00;;;;10544489;27;20705;-82
2022/04/29 20:24:18;;;;;;;18.67;13.33;;;;;11.10;102273.00;;;;10549184;28;20180;-81
2022/04/29 20:29:21;;;;;;;19.50;13.77;;;;;11.00;102271.00;;;;10501612;28;20877;-81
2022/04/29 20:34:23;;;;;;;19.10;14.17;;;;;10.90;102277.00;;;;10524646;28;20208;-81
2022/04/29 20:44:47;;;;;;;17.00;12.53;;;;;10.70;102286.00;;;;10530327;27;20208;-81
2022/04/29 20:49:50;;;;;;;17.80;12.33;;;;;10.60;102294.00;;;;10535395;27;20288;-82
2022/04/29 20:54:52;;;;;;;14.40;12.13;;;;;10.50;102290.00;;;;10513215;28;20228;-81
2022/04/29 20:59:54;;;;;;;16.27;11.97;;;;;10.40;102297.00;;;;10547024;27;20184;-81
2022/04/29 21:04:56;;;;;;;18.57;11.67;;;;;10.50;102296.00;;;;10514924;28;20188;-82
2022/04/29 21:09:58;;;;;;;15.20;11.33;;;;;10.50;102294.00;;;;10523323;28;20204;-81
2022/04/29 21:15:05;;;;;;;15.33;11.37;;;;;10.50;102297.00;;;;10504550;28;20188;-82
2022/04/29 21:20:13;;;;;;;17.90;10.20;;;;;10.50;102302.00;;;;10551968;27;20198;-80
2022/04/29 21:25:16;;;;;;;12.83;10.70;;;;;10.50;102306.00;;;;10555001;27;20606;-83
2022/04/29 21:35:39;;;;;;;18.73;10.40;;;;;10.60;102308.00;;;;10496367;28;20188;-81
2022/04/29 21:40:41;;;;;;;15.20;10.17;;;;;10.60;102310.00;;;;10493749;28;20258;-83
2022/04/29 21:45:43;;;;;;;12.67;9.57;;;;;10.60;102313.00;;;;10522983;27;20207;-83
2022/04/29 21:50:46;;;;;;;14.40;9.30;;;;;10.50;102322.00;;;;10512011;28;20300;-82
2022/04/29 21:55:48;;;;;;;14.33;9.07;;;;;10.40;102323.00;;;;10493841;28;20729;-83
2022/04/29 22:00:50;;;;;;;12.03;9.33;;;;;10.40;102329.00;;;;10508791;28;20222;-83
2022/04/29 22:05:52;;;;;;;11.17;8.77;;;;;10.40;102329.00;;;;10509956;28;20216;-83
2022/04/29 22:10:56;;;;;;;10.23;8.67;;;;;10.40;102333.00;;;;10522788;28;20258;-84
2022/04/29 22:15:59;;;;;;;12.90;8.87;;;;;10.40;102332.00;;;;10517397;28;20188;-83
2022/04/29 22:21:00;;;;;;;13.40;9.20;;;;;10.30;102332.00;;;;10515420;28;20601;-84
2022/04/29 22:26:02;;;;;;;13.20;9.50;;;;;10.30;102339.00;;;;10524452;28;20262;-83
2022/04/29 22:31:04;;;;;;;9.43;8.30;;;;;10.20;102329.00;;;;10477626;28;20262;-83
2022/04/29 22:36:07;;;;;;;11.83;8.33;;;;;10.10;102326.00;;;;10511677;28;20199;-83
2022/04/29 22:41:09;;;;;;;10.27;7.73;;;;;9.90;102333.00;;;;10530958;28;20651;-82
2022/04/29 22:46:13;;;;;;;10.50;8.27;;;;;9.80;102323.00;;;;10509121;28;20249;-83
2022/04/29 22:51:15;;;;;;;11.60;8.03;;;;;9.70;102324.00;;;;10516714;28;20299;-82
2022/04/29 22:56:17;;;;;;;13.10;8.47;;;;;9.50;102320.00;;;;10500110;28;20245;-83
2022/04/29 23:01:19;;;;;;;15.17;8.17;;;;;9.30;102315.00;;;;10528217;28;20189;-83
2022/04/29 23:06:22;;;;;;;13.03;7.90;;;;;9.20;102325.00;;;;10503137;28;20231;-83
2022/04/29 23:11:24;;;;;;;10.07;7.17;;;;;9.00;102326.00;;;;10504455;28;20671;-84
2022/04/29 23:16:31;;;;;;;8.77;7.63;;;;;8.90;102318.00;;;;10495423;28;20203;-83
2022/04/29 23:21:33;;;;;;;10.80;6.97;;;;;8.70;102329.00;;;;10521619;28;20428;-83
2022/04/29 23:26:37;;;;;;;12.83;7.80;;;;;8.60;102319.00;;;;10544317;28;20191;-83
2022/04/29 23:31:40;;;;;;;8.97;7.50;;;;;8.40;102309.00;;;;10555335;28;20200;-82
2022/04/29 23:36:46;;;;;;;13.07;7.67;;;;;8.40;102318.00;;;;10526469;28;20604;-82
2022/04/29 23:41:50;;;;;;;11.50;7.57;;;;;8.30;102308.00;;;;10535671;28;20201;-83
2022/04/29 23:46:53;;;;;;;11.27;7.33;;;;;8.10;102318.00;;;;10544748;28;20196;-83
2022/04/29 23:52:10;;;;;;;10.53;7.73;;;;;8.00;102315.00;;;;10519323;28;20223;-84
2022/04/29 23:57:13;;;;;;;15.63;7.67;;;;;7.90;102322.00;;;;10518350;28;20197;-83
